x

La Perouse Bank (46206) Wave Buoy

12:00 - Wed 17th Dec 2014 All times are PST. -8 hours from GMT.

  • Sig Wave height 8.5ft
  • Peak Period 14s
  • Wind
    13mph, 18mph gusts
  • Sea Temp 53°f
  • Aire Temp 48°f
  • Sea Pressure 1009.9mb
  • La Perouse Bank
  • La Perouse Bank

More Historic Weather Station data

Upgrade to MSW Pro to gain access to the past 30 days of data for over 8000 Wavebouys and Weather Stations around the globe.

Join Pro

Comparision Forecast

View Surf forecast
   
mié 12/17 12:00 8.5ft 14s 13 18 mph 1009.9mb 53f 48f
11:00 8.5ft 14s 16 20 mph 1009.8mb 53f 48f
10:00 9ft 14s 16 22 mph 1009.5mb 53f 48f
9:00 8.5ft 14s 13 20 mph 1009.3mb 53f 48f
8:00 9ft 14s 18 22 mph 1008.6mb 53f 48f
7:00 9.5ft 14s 7 18 mph 1008.2mb 53f 49f
6:00 9.5ft 14s 16 22 mph 1007.8mb 53f 49f
5:00 9.5ft 14s 16 25 mph 1008mb 53f 48f
4:00 10ft 12s 4 9 mph 1008.3mb 54f 48f
3:00 9.5ft 12s 2 4 mph 1008.1mb 54f 48f
2:00 10ft 11s 4 7 mph 1007.8mb 54f 48f
1:00 10ft 13s  -  4 mph 1008mb 54f 49f
12:00 8.5ft 10s 13 18 mph 1007.9mb 54f 49f
mar 12/16 11:00 8.5ft 12s 13 16 mph 1008mb 54f 50f
10:00 9.5ft 12s 13 18 mph 1007.9mb 54f 50f
9:00 10ft 11s 13 18 mph 1007.7mb 54f 50f
8:00 10ft 10s 22 27 mph 1007.3mb 53f 52f
7:00  -   -  22
mph
1007.3mb - 52f
6:00  -   -  27
mph
- - -
5:00 10ft 12s 25 31 mph 1007.3mb 53f 49f
4:00 10ft 11s 25 34 mph 1007.3mb 53f 48f
3:00 9.5ft 8s 27 34 mph 1007.4mb 53f 48f
2:00 9ft 11s 27 36 mph 1006.9mb 53f 48f
1:00 9.5ft 11s 27 31 mph 1007mb 54f 47f
12:00 10ft 10s 29 36 mph 1007mb 54f 48f
11:00 10ft 12s 27 36 mph 1007.5mb 54f 48f
10:00 10.5ft 12s 27 34 mph 1007.8mb 54f 48f
9:00 10.5ft 12s 27 31 mph 1007.6mb 54f 48f
8:00 10ft 9s 27 34 mph 1007.3mb 54f 48f
7:00 10ft 10s 27 34 mph 1006.9mb 54f 48f
6:00 10ft 14s 27 34 mph 1007mb 54f 47f
5:00 10.5ft 9s 27 34 mph 1007mb 54f 47f
4:00 11.5ft 14s 27 34 mph 1007mb 54f 48f
3:00 10.5ft 14s 27 34 mph 1007.1mb 54f 48f
2:00 12ft 9s 29 34 mph 1007mb 54f 48f
1:00 11.5ft 14s 27 36 mph 1007mb 54f 48f
12:00 12ft 11s 29 36 mph 1007.3mb 54f 48f
lun 12/15 11:00 12ft 14s 27 34 mph 1007.6mb 54f 48f
10:00 12ft 15s 27 34 mph 1007.3mb 53f 50f
9:00 12.5ft 16s 27 36 mph 1007.3mb 53f 49f
8:00 13ft 15s 29 34 mph 1007.5mb 53f 49f
7:00 13ft 15s 29 36 mph 1007.6mb 53f 48f
6:00 14.5ft 12s 29 36 mph 1008mb 53f 48f
5:00 14.5ft 15s 29
mph
1008.3mb 54f 47f
4:00 16.5ft 14s 27 36 mph 1008.7mb 54f 48f
3:00 15.5ft 15s 29 38 mph 1008.5mb 54f 49f
2:00 16ft 16s 27 36 mph 1008.8mb 54f 48f
1:00 17ft 15s 29 36 mph 1009mb 54f 47f
11:00 16.5ft 11s 34 43 mph 1009.3mb 54f 49f
10:00 15ft 11s 34 43 mph 1009.4mb 54f 48f
9:00 14.5ft 12s 31 40 mph 1008.9mb 54f 49f
8:00 13.5ft 17s 34 43 mph 1008.5mb 54f 49f
7:00 13.5ft 17s 36 43 mph 1008.3mb 54f 50f
6:00 13.5ft 11s 29 36 mph 1008.6mb 54f 50f
5:00 13ft 12s 31 40 mph 1008.5mb 54f 51f
4:00 12ft 18s 31 38 mph 1008.9mb 54f 51f
3:00 12.5ft 17s 29 36 mph 1009.7mb 54f 51f
2:00 12ft 18s 29 36 mph 1010.2mb 54f 51f
1:00 12.5ft 18s 29 36 mph 1010.6mb 54f 51f
12:00 12.5ft 17s 29 36 mph 1010.9mb 54f 51f
dom 12/14 11:00 12.5ft 18s 29 40 mph 1011.1mb 54f 51f
10:00 12.5ft 12s 29 36 mph 1011mb 54f 52f
9:00 11ft 12s 27 34 mph 1011.9mb 54f 52f
8:00  -   -  27
mph
1012mb - 52f
7:00 11.5ft 18s 27 34 mph 1012.2mb 54f 52f
6:00 11ft 18s 27 34 mph 1012.6mb 54f 52f
5:00 10ft 11s 27 36 mph 1013.2mb 54f 52f
4:00 9ft 18s 27 31 mph 1013.6mb 54f 51f
3:00 9.5ft 18s 29 36 mph 1014.1mb 54f 51f
2:00 9ft 11s 29 36 mph 1014.7mb 54f 50f
1:00 8.5ft 8s 29 36 mph 1015.3mb 54f 50f
12:00 8.5ft 8s 27 34 mph 1016.2mb 54f 50f
11:00 8ft 7s 29 36 mph 1016.8mb 54f 49f
10:00 8ft 6s 27 31 mph 1017.7mb 54f 49f
9:00 8ft 6s 27 31 mph 1017.8mb 53f 49f
8:00 7.5ft 7s 27 31 mph 1017.5mb 54f 49f
7:00 7.5ft 6s 29 36 mph 1017.6mb 54f 49f
6:00 7ft 6s 27 34 mph 1017.9mb 54f 49f
5:00 7ft 6s 29 36 mph 1018.3mb 54f 49f
4:00 7ft 5s 27 34 mph 1019mb 53f 49f
3:00 7.5ft 5s 27 31 mph 1019.9mb 53f 49f
2:00 7.5ft 6s 27 31 mph 1020.6mb 53f 49f
1:00 8ft 6s 27 31 mph 1020.7mb 53f 49f
12:00 8ft 10s 27 31 mph 1020.8mb 53f 49f
sáb 12/13 11:00 8.5ft 12s 27 31 mph 1021.2mb 53f 50f
10:00 9ft 13s 27 34 mph 1021.4mb 53f 50f